TFM - Tactical Decision Aid
ID: Runway Winds: CIG/VIS Threshold:

KMIA - Miami Intl, FL, US

Updated at: 1936 UTC 19 Aug 2019
Latest TAF at: 1742 UTC 19 Aug 2019

TAF Board

Time1853Z 19/20Z 19/21Z 19/22Z 19/23Z 20/00Z 20/01Z 20/02Z 20/03Z 20/04Z 20/05Z 20/06Z 20/07Z 20/08Z>>
Type OBS PRVL PRVL PRVL PRVL PRVL PRVL PRVL PRVL PRVL PRVL PRVL PRVL PRVL
VIS 10 >6 >6 >6 >6 >6 >6 >6 >6 >6 >6 >6 >6 >6
CIG 250 -- -- -- -- -- -- -- -- -- -- -- -- --
Cover BKN SCT SCT SCT SCT SCT SCT SCT SCT SCT SCT SCT SCT SCT
FltCat VFR VFR VFR VFR VFR VFR VFR VFR VFR VFR VFR VFR VFR VFR
WX -- VCTS VCTS VCTS -- -- -- -- -- -- VCSH VCSH VCSH VCSH
WDir 60 80 80 80 80 80 80 80 80 80 110 110 110 110
WSpd 5 11 11 11 8 8 8 8 8 8 4 4 4 4
WGst -- -- -- -- -- -- -- -- -- -- -- -- -- --

TDA Impact Legend

  None Marginal Slight Moderate High
Visibility (sm) >5 3≤X≤5 1≤X<3 0.5≤X<1 <0.5
Ceiling (100 ft) >30 10≤X≤30 4≤X<10 2≤X<4 <2
Wind Speed (kt) <15 15≤X<25 25≤X<30 ≥30
Wind Gust (kt) <15 15≤X<25 25≤X<35 ≥35
Weather No Wx Reported VCTS -TS,-FZRA TS,FZRA +TS,+FZRA
TAF
KMIA 191742Z 1918/2024 08011KT P6SM VCTS SCT035CB SCT060
  TEMPO 1918/1920 04015G25KT 4SM TSRA SCT025 BKN035CB
  FM192300 08008KT P6SM FEW030 SCT050
  FM200500 11004KT P6SM VCSH SCT030
  FM201400 11012KT P6SM VCSH SCT030 BKN050


METAR
KMIA 191853Z 06005KT 10SM FEW030 SCT050 SCT100 BKN250 29/23 A3004 RMK AO2 RAE05 TSB18E33 SLP172 CB DSNT S-W-NW MOV W P0000 T02940233
KMIA 191839Z 07006KT 10SM FEW035 SCT050 SCT100 BKN250 29/22 A3004 RMK AO2 LTG DSNT W RAE05 TSB18E33 CB DSNT S AND W-NW MOV W P0000 T02890222
KMIA 191818Z 02005KT 10SM TS FEW035 SCT049 SCT100 BKN250 28/23 A3006 RMK AO2 LTG DSNT N AND W RAE05 TSB18 CB DSNT N AND SE AND W MOV W P0000 T02830228
KMIA 191753Z 35004KT 8SM -RA FEW025 BKN035CB BKN060 BKN130 26/22 A3007 RMK AO2 PK WND 09029/1710 WSHFT 1714 LTG DSNT W RAB1656 TSB1655E10B12E43 SLP182 CB ALQDS MOV W P0039 60039 T02560222 10333 20250 55003
KMIA 191746Z 36005KT 8SM R09/4500VP6000FT VCTS RA BKN035CB BKN100 25/21 A3008 RMK AO2 PK WND 09029/1710 WSHFT 1714 RAB1656 TSB1655E10B12E43 CB S-W-N MOV W P0038 T02500211
KMIA 191742Z 01007KT 3SM R09/3500VP6000FT +TSRA FEW030CB BKN035 OVC095 25/21 A3008 RMK AO2 PK WND 09029/1710 WSHFT 1714 RAB1656 TSB1655E10B12 OCNL LTGICCG OHD TS OHD MOV W P0033 T02500206
KMIA 191728Z 03013G22KT 1 1/2SM R09/3500V5000FT +TSRA FEW025CB BKN035 OVC110 25/21 A3009 RMK AO2 PK WND 09029/1710 WSHFT 1714 RAB1656 TSB1655E10B12 OCNL LTGICCG OHD TS OHD MOV W P0015 T02500211
KMIA 191725Z 04011G23KT 1 1/2SM R09/3500VP6000FT +TSRA FEW025CB BKN035 OVC110 25/22 A3010 RMK AO2 PK WND 09029/1710 VIS 1V4 RAB1656 TSB1655E10B12 PRESRR OCNL LTGICCG OHD TS OHD MOV W P0010 T02500217
KMIA 191701Z 09018KT 10SM -TSRA BKN035CB BKN100 BKN250 31/19 A3006 RMK AO2 RAB1656 TSB1655 OCNL LTGICCG E TS E MOV W P0000 T03110194
KMIA 191653Z 09019G22KT 10SM BKN035CB BKN095 BKN200 32/22 A3007 RMK AO2 SLP181 CB E MOV W T03170217

Radar Display
Forecast Discussion